sensor_id;sensor_type;location;lat;lon;timestamp;temperature;humidity
70051;SHT30;57391;51.306;22.680;2022-07-29T00:00:08;14.29;68.08
70051;SHT30;57391;51.306;22.680;2022-07-29T00:02:57;14.26;68.19
70051;SHT30;57391;51.306;22.680;2022-07-29T00:05:24;14.25;68.33
70051;SHT30;57391;51.306;22.680;2022-07-29T00:07:51;14.22;68.79
70051;SHT30;57391;51.306;22.680;2022-07-29T00:10:18;14.16;69.08
70051;SHT30;57391;51.306;22.680;2022-07-29T00:12:46;14.10;69.06
70051;SHT30;57391;51.306;22.680;2022-07-29T00:15:13;14.10;69.33
70051;SHT30;57391;51.306;22.680;2022-07-29T00:17:40;14.10;69.54
70051;SHT30;57391;51.306;22.680;2022-07-29T00:20:08;14.07;69.81
70051;SHT30;57391;51.306;22.680;2022-07-29T00:22:39;13.99;70.15
70051;SHT30;57391;51.306;22.680;2022-07-29T00:25:06;13.95;70.11
70051;SHT30;57391;51.306;22.680;2022-07-29T00:27:35;13.93;69.76
70051;SHT30;57391;51.306;22.680;2022-07-29T00:30:03;13.89;69.89
70051;SHT30;57391;51.306;22.680;2022-07-29T00:32:32;13.89;70.04
70051;SHT30;57391;51.306;22.680;2022-07-29T00:34:59;13.86;70.10
70051;SHT30;57391;51.306;22.680;2022-07-29T00:37:45;13.82;70.44
70051;SHT30;57391;51.306;22.680;2022-07-29T00:40:12;13.80;70.72
70051;SHT30;57391;51.306;22.680;2022-07-29T00:42:47;13.77;70.80
70051;SHT30;57391;51.306;22.680;2022-07-29T00:45:17;13.76;70.83
70051;SHT30;57391;51.306;22.680;2022-07-29T00:47:48;13.72;71.00
70051;SHT30;57391;51.306;22.680;2022-07-29T00:50:15;13.68;71.16
70051;SHT30;57391;51.306;22.680;2022-07-29T00:52:44;13.65;71.27
70051;SHT30;57391;51.306;22.680;2022-07-29T00:55:12;13.63;71.02
70051;SHT30;57391;51.306;22.680;2022-07-29T00:57:42;13.63;71.14
70051;SHT30;57391;51.306;22.680;2022-07-29T01:00:12;13.63;71.10
70051;SHT30;57391;51.306;22.680;2022-07-29T01:02:47;13.63;71.13
70051;SHT30;57391;51.306;22.680;2022-07-29T01:05:16;13.63;71.20
70051;SHT30;57391;51.306;22.680;2022-07-29T01:07:48;13.63;71.22
70051;SHT30;57391;51.306;22.680;2022-07-29T01:10:19;13.62;71.28
70051;SHT30;57391;51.306;22.680;2022-07-29T01:12:49;13.62;71.61
70051;SHT30;57391;51.306;22.680;2022-07-29T01:15:19;13.60;71.77
70051;SHT30;57391;51.306;22.680;2022-07-29T01:20:24;13.58;71.24
70051;SHT30;57391;51.306;22.680;2022-07-29T01:25:57;13.52;71.80
70051;SHT30;57391;51.306;22.680;2022-07-29T01:28:39;13.49;72.18
70051;SHT30;57391;51.306;22.680;2022-07-29T01:31:45;13.48;71.67
70051;SHT30;57391;51.306;22.680;2022-07-29T01:34:25;13.45;71.77
70051;SHT30;57391;51.306;22.680;2022-07-29T01:37:15;13.44;72.41
70051;SHT30;57391;51.306;22.680;2022-07-29T01:39:51;13.42;71.62
70051;SHT30;57391;51.306;22.680;2022-07-29T01:50:50;13.37;72.24
70051;SHT30;57391;51.306;22.680;2022-07-29T01:53:33;13.38;72.12
70051;SHT30;57391;51.306;22.680;2022-07-29T01:56:09;13.39;72.18
70051;SHT30;57391;51.306;22.680;2022-07-29T01:58:39;13.39;72.11
70051;SHT30;57391;51.306;22.680;2022-07-29T02:01:10;13.39;72.42
70051;SHT30;57391;51.306;22.680;2022-07-29T02:03:41;13.38;72.62
70051;SHT30;57391;51.306;22.680;2022-07-29T02:06:13;13.37;73.01
70051;SHT30;57391;51.306;22.680;2022-07-29T02:08:49;13.35;72.59
70051;SHT30;57391;51.306;22.680;2022-07-29T02:11:19;13.32;72.31
70051;SHT30;57391;51.306;22.680;2022-07-29T02:13:46;13.29;72.12
70051;SHT30;57391;51.306;22.680;2022-07-29T02:16:16;13.27;72.27
70051;SHT30;57391;51.306;22.680;2022-07-29T02:18:49;13.25;72.74
70051;SHT30;57391;51.306;22.680;2022-07-29T02:21:21;13.24;73.15
70051;SHT30;57391;51.306;22.680;2022-07-29T02:23:52;13.23;72.71
70051;SHT30;57391;51.306;22.680;2022-07-29T02:26:23;13.21;72.41
70051;SHT30;57391;51.306;22.680;2022-07-29T02:28:54;13.22;72.40
70051;SHT30;57391;51.306;22.680;2022-07-29T02:31:25;13.20;72.53
70051;SHT30;57391;51.306;22.680;2022-07-29T02:33:58;13.20;72.84
70051;SHT30;57391;51.306;22.680;2022-07-29T02:36:29;13.20;73.20
70051;SHT30;57391;51.306;22.680;2022-07-29T02:38:59;13.23;73.39
70051;SHT30;57391;51.306;22.680;2022-07-29T02:41:29;13.25;73.57
70051;SHT30;57391;51.306;22.680;2022-07-29T02:44:05;13.25;73.70
70051;SHT30;57391;51.306;22.680;2022-07-29T02:46:41;13.25;73.47
70051;SHT30;57391;51.306;22.680;2022-07-29T02:49:29;13.24;72.77
70051;SHT30;57391;51.306;22.680;2022-07-29T02:52:23;13.19;72.59
70051;SHT30;57391;51.306;22.680;2022-07-29T02:58:02;13.14;72.62
70051;SHT30;57391;51.306;22.680;2022-07-29T03:00:46;13.11;73.35
70051;SHT30;57391;51.306;22.680;2022-07-29T03:03:18;13.12;73.13
70051;SHT30;57391;51.306;22.680;2022-07-29T03:05:48;13.14;73.03
70051;SHT30;57391;51.306;22.680;2022-07-29T03:08:15;13.18;73.18
70051;SHT30;57391;51.306;22.680;2022-07-29T03:10:44;13.23;73.52
70051;SHT30;57391;51.306;22.680;2022-07-29T03:13:13;13.28;73.54
70051;SHT30;57391;51.306;22.680;2022-07-29T03:15:42;13.34;73.65
70051;SHT30;57391;51.306;22.680;2022-07-29T03:18:11;13.39;73.70
70051;SHT30;57391;51.306;22.680;2022-07-29T03:20:40;13.44;73.81
70051;SHT30;57391;51.306;22.680;2022-07-29T03:23:08;13.51;74.04
70051;SHT30;57391;51.306;22.680;2022-07-29T03:25:36;13.56;74.06
70051;SHT30;57391;51.306;22.680;2022-07-29T03:28:03;13.62;74.00
70051;SHT30;57391;51.306;22.680;2022-07-29T03:30:30;13.67;73.87
70051;SHT30;57391;51.306;22.680;2022-07-29T03:32:57;13.71;73.79
70051;SHT30;57391;51.306;22.680;2022-07-29T03:35:24;13.76;73.85
70051;SHT30;57391;51.306;22.680;2022-07-29T03:37:51;13.80;73.92
70051;SHT30;57391;51.306;22.680;2022-07-29T03:40:22;13.86;73.95
70051;SHT30;57391;51.306;22.680;2022-07-29T03:42:58;13.90;73.89
70051;SHT30;57391;51.306;22.680;2022-07-29T03:45:28;13.95;73.90
70051;SHT30;57391;51.306;22.680;2022-07-29T03:48:01;14.01;73.93
70051;SHT30;57391;51.306;22.680;2022-07-29T03:50:35;14.08;73.91
70051;SHT30;57391;51.306;22.680;2022-07-29T03:53:02;14.17;73.92
70051;SHT30;57391;51.306;22.680;2022-07-29T03:55:32;14.25;73.90
70051;SHT30;57391;51.306;22.680;2022-07-29T03:58:07;14.34;73.98
70051;SHT30;57391;51.306;22.680;2022-07-29T04:00:36;14.81;73.68
70051;SHT30;57391;51.306;22.680;2022-07-29T04:03:04;16.42;71.35
70051;SHT30;57391;51.306;22.680;2022-07-29T04:05:31;18.44;67.26
70051;SHT30;57391;51.306;22.680;2022-07-29T04:07:59;20.36;63.12
70051;SHT30;57391;51.306;22.680;2022-07-29T04:10:26;22.05;59.31
70051;SHT30;57391;51.306;22.680;2022-07-29T04:12:53;23.59;55.34
70051;SHT30;57391;51.306;22.680;2022-07-29T04:15:21;25.10;51.69
70051;SHT30;57391;51.306;22.680;2022-07-29T04:17:48;26.44;48.28
70051;SHT30;57391;51.306;22.680;2022-07-29T04:20:15;27.50;45.29
70051;SHT30;57391;51.306;22.680;2022-07-29T04:22:42;28.35;42.97
70051;SHT30;57391;51.306;22.680;2022-07-29T04:25:09;29.10;41.02
70051;SHT30;57391;51.306;22.680;2022-07-29T04:27:36;29.85;39.42
70051;SHT30;57391;51.306;22.680;2022-07-29T04:30:23;30.65;38.00
70051;SHT30;57391;51.306;22.680;2022-07-29T04:32:50;31.42;36.45
70051;SHT30;57391;51.306;22.680;2022-07-29T04:35:18;32.06;35.20
70051;SHT30;57391;51.306;22.680;2022-07-29T04:37:47;32.68;34.22
70051;SHT30;57391;51.306;22.680;2022-07-29T04:40:15;33.27;33.11
70051;SHT30;57391;51.306;22.680;2022-07-29T04:42:42;33.82;32.43
70051;SHT30;57391;51.306;22.680;2022-07-29T04:45:09;34.36;31.72
70051;SHT30;57391;51.306;22.680;2022-07-29T04:47:36;34.94;31.05
70051;SHT30;57391;51.306;22.680;2022-07-29T04:50:04;35.47;30.03
70051;SHT30;57391;51.306;22.680;2022-07-29T04:52:33;35.56;28.93
70051;SHT30;57391;51.306;22.680;2022-07-29T04:55:02;35.52;28.74
70051;SHT30;57391;51.306;22.680;2022-07-29T04:57:31;35.43;28.50
70051;SHT30;57391;51.306;22.680;2022-07-29T04:59:58;34.62;29.03
70051;SHT30;57391;51.306;22.680;2022-07-29T05:02:25;33.27;30.10
70051;SHT30;57391;51.306;22.680;2022-07-29T05:04:53;31.95;31.43
70051;SHT30;57391;51.306;22.680;2022-07-29T05:07:20;31.01;32.55
70051;SHT30;57391;51.306;22.680;2022-07-29T05:09:47;30.65;33.14
70051;SHT30;57391;51.306;22.680;2022-07-29T05:12:14;31.14;32.93
70051;SHT30;57391;51.306;22.680;2022-07-29T05:14:41;31.73;32.32
70051;SHT30;57391;51.306;22.680;2022-07-29T05:17:09;31.30;32.25
70051;SHT30;57391;51.306;22.680;2022-07-29T05:19:36;30.08;33.77
70051;SHT30;57391;51.306;22.680;2022-07-29T05:22:03;28.93;35.43
70051;SHT30;57391;51.306;22.680;2022-07-29T05:24:30;28.30;36.80
70051;SHT30;57391;51.306;22.680;2022-07-29T05:26:57;27.99;37.47
70051;SHT30;57391;51.306;22.680;2022-07-29T05:29:25;28.41;36.92
70051;SHT30;57391;51.306;22.680;2022-07-29T05:31:52;29.19;35.55
70051;SHT30;57391;51.306;22.680;2022-07-29T05:34:21;29.64;35.11
70051;SHT30;57391;51.306;22.680;2022-07-29T05:36:48;30.09;34.91
70051;SHT30;57391;51.306;22.680;2022-07-29T05:39:16;29.99;35.10
70051;SHT30;57391;51.306;22.680;2022-07-29T05:41:43;29.32;35.85
70051;SHT30;57391;51.306;22.680;2022-07-29T05:44:10;28.71;37.05
70051;SHT30;57391;51.306;22.680;2022-07-29T05:46:39;28.22;37.60
70051;SHT30;57391;51.306;22.680;2022-07-29T05:49:07;27.76;37.91
70051;SHT30;57391;51.306;22.680;2022-07-29T05:51:34;27.77;38.27
70051;SHT30;57391;51.306;22.680;2022-07-29T05:54:02;28.25;37.50
70051;SHT30;57391;51.306;22.680;2022-07-29T05:56:30;28.86;37.36
70051;SHT30;57391;51.306;22.680;2022-07-29T05:58:57;29.55;36.39
70051;SHT30;57391;51.306;22.680;2022-07-29T06:01:24;30.23;35.66
70051;SHT30;57391;51.306;22.680;2022-07-29T06:03:52;30.81;34.27
70051;SHT30;57391;51.306;22.680;2022-07-29T06:06:20;30.79;33.96
70051;SHT30;57391;51.306;22.680;2022-07-29T06:08:47;30.17;34.51
70051;SHT30;57391;51.306;22.680;2022-07-29T06:11:14;29.29;35.43
70051;SHT30;57391;51.306;22.680;2022-07-29T06:13:41;28.68;36.49
70051;SHT30;57391;51.306;22.680;2022-07-29T06:16:08;28.25;37.13
70051;SHT30;57391;51.306;22.680;2022-07-29T06:18:35;27.87;37.62
70051;SHT30;57391;51.306;22.680;2022-07-29T06:21:06;27.73;36.90
70051;SHT30;57391;51.306;22.680;2022-07-29T06:23:36;28.12;36.73
70051;SHT30;57391;51.306;22.680;2022-07-29T06:26:05;28.79;36.09
70051;SHT30;57391;51.306;22.680;2022-07-29T06:28:32;29.39;34.98
70051;SHT30;57391;51.306;22.680;2022-07-29T06:31:00;29.64;34.41
70051;SHT30;57391;51.306;22.680;2022-07-29T06:33:27;29.97;33.55
70051;SHT30;57391;51.306;22.680;2022-07-29T06:35:54;30.04;33.08
70051;SHT30;57391;51.306;22.680;2022-07-29T06:38:21;30.33;33.50
70051;SHT30;57391;51.306;22.680;2022-07-29T06:40:49;30.66;32.75
70051;SHT30;57391;51.306;22.680;2022-07-29T06:43:37;30.94;32.10
70051;SHT30;57391;51.306;22.680;2022-07-29T06:46:08;30.81;31.68
70051;SHT30;57391;51.306;22.680;2022-07-29T06:48:39;30.47;32.18
70051;SHT30;57391;51.306;22.680;2022-07-29T06:51:11;29.96;32.26
70051;SHT30;57391;51.306;22.680;2022-07-29T06:53:38;29.44;32.80
70051;SHT30;57391;51.306;22.680;2022-07-29T06:56:06;28.89;32.86
70051;SHT30;57391;51.306;22.680;2022-07-29T06:58:39;28.33;33.43
70051;SHT30;57391;51.306;22.680;2022-07-29T07:01:06;28.14;34.40
70051;SHT30;57391;51.306;22.680;2022-07-29T07:03:34;28.10;33.99
70051;SHT30;57391;51.306;22.680;2022-07-29T07:06:01;27.99;34.47
70051;SHT30;57391;51.306;22.680;2022-07-29T07:08:28;28.02;34.38
70051;SHT30;57391;51.306;22.680;2022-07-29T07:10:55;28.20;34.42
70051;SHT30;57391;51.306;22.680;2022-07-29T07:13:23;28.37;34.40
70051;SHT30;57391;51.306;22.680;2022-07-29T07:15:51;28.60;34.58
70051;SHT30;57391;51.306;22.680;2022-07-29T07:18:18;28.68;33.23
70051;SHT30;57391;51.306;22.680;2022-07-29T07:20:45;28.70;33.70
70051;SHT30;57391;51.306;22.680;2022-07-29T07:23:13;28.98;33.99
70051;SHT30;57391;51.306;22.680;2022-07-29T07:25:40;29.27;33.60
70051;SHT30;57391;51.306;22.680;2022-07-29T07:28:08;29.58;33.45
70051;SHT30;57391;51.306;22.680;2022-07-29T07:30:35;29.88;32.95
70051;SHT30;57391;51.306;22.680;2022-07-29T07:33:03;29.82;31.70
70051;SHT30;57391;51.306;22.680;2022-07-29T07:35:30;29.59;31.86
70051;SHT30;57391;51.306;22.680;2022-07-29T07:37:58;29.54;32.46
70051;SHT30;57391;51.306;22.680;2022-07-29T07:40:25;29.48;31.88
70051;SHT30;57391;51.306;22.680;2022-07-29T07:42:52;29.30;32.18
70051;SHT30;57391;51.306;22.680;2022-07-29T07:45:19;29.30;32.31
70051;SHT30;57391;51.306;22.680;2022-07-29T07:47:47;29.33;32.30
70051;SHT30;57391;51.306;22.680;2022-07-29T07:50:14;29.19;31.89
70051;SHT30;57391;51.306;22.680;2022-07-29T07:52:47;28.69;32.15
70051;SHT30;57391;51.306;22.680;2022-07-29T07:55:24;28.40;33.51
70051;SHT30;57391;51.306;22.680;2022-07-29T07:57:53;28.43;33.34
70051;SHT30;57391;51.306;22.680;2022-07-29T08:00:22;28.50;33.67
70051;SHT30;57391;51.306;22.680;2022-07-29T08:02:49;28.68;32.87
70051;SHT30;57391;51.306;22.680;2022-07-29T08:05:17;28.65;31.76
70051;SHT30;57391;51.306;22.680;2022-07-29T08:07:45;28.52;32.43
70051;SHT30;57391;51.306;22.680;2022-07-29T08:10:14;28.75;33.13
70051;SHT30;57391;51.306;22.680;2022-07-29T08:13:06;28.95;31.93
70051;SHT30;57391;51.306;22.680;2022-07-29T08:15:35;28.95;31.83
70051;SHT30;57391;51.306;22.680;2022-07-29T08:18:02;28.84;32.34
70051;SHT30;57391;51.306;22.680;2022-07-29T08:20:30;28.73;32.20
70051;SHT30;57391;51.306;22.680;2022-07-29T08:22:59;28.63;32.36
70051;SHT30;57391;51.306;22.680;2022-07-29T08:25:26;28.70;31.86
70051;SHT30;57391;51.306;22.680;2022-07-29T08:27:54;28.68;32.03
70051;SHT30;57391;51.306;22.680;2022-07-29T08:30:21;28.76;32.57
70051;SHT30;57391;51.306;22.680;2022-07-29T08:32:48;28.76;31.83
70051;SHT30;57391;51.306;22.680;2022-07-29T08:35:19;28.75;31.53
70051;SHT30;57391;51.306;22.680;2022-07-29T08:37:48;28.61;31.80
70051;SHT30;57391;51.306;22.680;2022-07-29T08:40:15;28.53;31.75
70051;SHT30;57391;51.306;22.680;2022-07-29T08:42:43;28.47;31.85
70051;SHT30;57391;51.306;22.680;2022-07-29T08:45:10;28.77;32.61
70051;SHT30;57391;51.306;22.680;2022-07-29T08:47:38;29.27;32.36
70051;SHT30;57391;51.306;22.680;2022-07-29T08:50:08;29.36;30.77
70051;SHT30;57391;51.306;22.680;2022-07-29T08:52:37;29.51;31.35
70051;SHT30;57391;51.306;22.680;2022-07-29T08:55:07;29.87;31.14
70051;SHT30;57391;51.306;22.680;2022-07-29T08:57:37;30.06;30.41
70051;SHT30;57391;51.306;22.680;2022-07-29T09:00:06;30.19;30.19
70051;SHT30;57391;51.306;22.680;2022-07-29T09:02:41;30.19;30.63
70051;SHT30;57391;51.306;22.680;2022-07-29T09:05:12;30.13;30.33
70051;SHT30;57391;51.306;22.680;2022-07-29T09:07:40;29.92;30.54
70051;SHT30;57391;51.306;22.680;2022-07-29T09:10:12;30.00;30.31
70051;SHT30;57391;51.306;22.680;2022-07-29T09:12:39;29.92;30.41
70051;SHT30;57391;51.306;22.680;2022-07-29T09:15:07;29.90;30.29
70051;SHT30;57391;51.306;22.680;2022-07-29T09:17:45;29.83;30.36
70051;SHT30;57391;51.306;22.680;2022-07-29T09:20:18;29.81;30.55
70051;SHT30;57391;51.306;22.680;2022-07-29T09:22:49;29.70;30.35
70051;SHT30;57391;51.306;22.680;2022-07-29T09:25:38;29.57;30.23
70051;SHT30;57391;51.306;22.680;2022-07-29T09:30:52;29.51;31.15
70051;SHT30;57391;51.306;22.680;2022-07-29T09:33:23;29.74;30.41
70051;SHT30;57391;51.306;22.680;2022-07-29T09:36:07;29.69;30.66
70051;SHT30;57391;51.306;22.680;2022-07-29T09:38:37;29.62;30.96
70051;SHT30;57391;51.306;22.680;2022-07-29T09:41:04;29.69;30.88
70051;SHT30;57391;51.306;22.680;2022-07-29T09:43:34;29.72;31.03
70051;SHT30;57391;51.306;22.680;2022-07-29T09:46:11;29.75;30.80
70051;SHT30;57391;51.306;22.680;2022-07-29T09:48:40;29.96;30.45
70051;SHT30;57391;51.306;22.680;2022-07-29T09:51:17;30.07;30.40
70051;SHT30;57391;51.306;22.680;2022-07-29T09:53:46;30.34;30.74
70051;SHT30;57391;51.306;22.680;2022-07-29T09:56:14;30.58;29.52
70051;SHT30;57391;51.306;22.680;2022-07-29T09:58:41;30.83;29.99
70051;SHT30;57391;51.306;22.680;2022-07-29T10:01:08;31.00;29.48
70051;SHT30;57391;51.306;22.680;2022-07-29T10:03:51;30.80;28.74
70051;SHT30;57391;51.306;22.680;2022-07-29T10:06:19;30.55;28.37
70051;SHT30;57391;51.306;22.680;2022-07-29T10:08:47;30.35;28.58
70051;SHT30;57391;51.306;22.680;2022-07-29T10:11:16;30.08;28.70
70051;SHT30;57391;51.306;22.680;2022-07-29T10:13:46;29.77;29.18
70051;SHT30;57391;51.306;22.680;2022-07-29T10:16:15;29.63;29.44
70051;SHT30;57391;51.306;22.680;2022-07-29T10:18:43;29.58;29.19
70051;SHT30;57391;51.306;22.680;2022-07-29T10:21:13;29.46;30.03
70051;SHT30;57391;51.306;22.680;2022-07-29T10:23:41;29.50;30.73
70051;SHT30;57391;51.306;22.680;2022-07-29T10:26:10;29.72;30.69
70051;SHT30;57391;51.306;22.680;2022-07-29T10:28:38;29.90;31.17
70051;SHT30;57391;51.306;22.680;2022-07-29T10:31:06;29.93;30.24
70051;SHT30;57391;51.306;22.680;2022-07-29T10:33:58;29.64;29.18
70051;SHT30;57391;51.306;22.680;2022-07-29T10:36:44;29.41;29.75
70051;SHT30;57391;51.306;22.680;2022-07-29T10:39:46;29.23;30.24
70051;SHT30;57391;51.306;22.680;2022-07-29T10:43:14;29.04;30.20
70051;SHT30;57391;51.306;22.680;2022-07-29T10:45:54;28.83;30.84
70051;SHT30;57391;51.306;22.680;2022-07-29T10:48:25;28.58;30.70
70051;SHT30;57391;51.306;22.680;2022-07-29T11:05:05;28.77;31.05
70051;SHT30;57391;51.306;22.680;2022-07-29T11:07:36;28.69;31.83
70051;SHT30;57391;51.306;22.680;2022-07-29T11:18:22;28.39;32.07
70051;SHT30;57391;51.306;22.680;2022-07-29T11:20:50;28.35;32.08
70051;SHT30;57391;51.306;22.680;2022-07-29T11:23:24;28.36;32.37
70051;SHT30;57391;51.306;22.680;2022-07-29T11:31:45;28.15;32.08
70051;SHT30;57391;51.306;22.680;2022-07-29T11:39:40;28.33;31.87
70051;SHT30;57391;51.306;22.680;2022-07-29T11:47:37;28.67;31.66
70051;SHT30;57391;51.306;22.680;2022-07-29T11:50:34;28.56;31.40
70051;SHT30;57391;51.306;22.680;2022-07-29T11:53:09;28.40;31.33
70051;SHT30;57391;51.306;22.680;2022-07-29T11:55:39;28.43;32.53
70051;SHT30;57391;51.306;22.680;2022-07-29T11:58:07;28.62;32.91
70051;SHT30;57391;51.306;22.680;2022-07-29T12:00:36;28.72;32.49
70051;SHT30;57391;51.306;22.680;2022-07-29T12:03:07;28.78;33.08
70051;SHT30;57391;51.306;22.680;2022-07-29T12:08:15;28.86;32.01
70051;SHT30;57391;51.306;22.680;2022-07-29T12:10:46;28.96;32.43
70051;SHT30;57391;51.306;22.680;2022-07-29T12:13:17;29.08;32.04
70051;SHT30;57391;51.306;22.680;2022-07-29T12:15:56;29.20;32.54
70051;SHT30;57391;51.306;22.680;2022-07-29T12:18:24;29.08;31.69
70051;SHT30;57391;51.306;22.680;2022-07-29T12:20:58;28.99;31.50
70051;SHT30;57391;51.306;22.680;2022-07-29T12:23:30;28.86;30.90
70051;SHT30;57391;51.306;22.680;2022-07-29T12:25:59;28.78;32.11
70051;SHT30;57391;51.306;22.680;2022-07-29T12:28:29;28.71;31.35
70051;SHT30;57391;51.306;22.680;2022-07-29T12:31:03;28.56;31.73
70051;SHT30;57391;51.306;22.680;2022-07-29T12:33:31;28.43;32.52
70051;SHT30;57391;51.306;22.680;2022-07-29T12:36:01;28.36;32.85
70051;SHT30;57391;51.306;22.680;2022-07-29T12:38:30;28.30;32.49
70051;SHT30;57391;51.306;22.680;2022-07-29T12:40:57;28.32;33.03
70051;SHT30;57391;51.306;22.680;2022-07-29T12:43:25;28.51;33.59
70051;SHT30;57391;51.306;22.680;2022-07-29T12:45:53;28.61;33.36
70051;SHT30;57391;51.306;22.680;2022-07-29T12:48:36;28.63;32.88
70051;SHT30;57391;51.306;22.680;2022-07-29T12:51:09;28.61;32.64
70051;SHT30;57391;51.306;22.680;2022-07-29T12:53:40;28.65;33.33
70051;SHT30;57391;51.306;22.680;2022-07-29T12:56:14;28.74;33.20
70051;SHT30;57391;51.306;22.680;2022-07-29T12:58:42;28.82;33.34
70051;SHT30;57391;51.306;22.680;2022-07-29T13:01:14;28.84;32.94
70051;SHT30;57391;51.306;22.680;2022-07-29T13:03:54;28.73;32.42
70051;SHT30;57391;51.306;22.680;2022-07-29T13:09:13;28.30;32.98
70051;SHT30;57391;51.306;22.680;2022-07-29T13:14:33;28.02;33.51
70051;SHT30;57391;51.306;22.680;2022-07-29T13:19:43;28.10;34.08
70051;SHT30;57391;51.306;22.680;2022-07-29T13:22:19;28.06;33.16
70051;SHT30;57391;51.306;22.680;2022-07-29T13:27:31;27.83;33.82
70051;SHT30;57391;51.306;22.680;2022-07-29T13:30:01;27.76;33.27
70051;SHT30;57391;51.306;22.680;2022-07-29T13:32:32;27.75;34.31
70051;SHT30;57391;51.306;22.680;2022-07-29T13:35:06;27.81;34.61
70051;SHT30;57391;51.306;22.680;2022-07-29T13:37:35;27.76;34.05
70051;SHT30;57391;51.306;22.680;2022-07-29T13:40:05;27.69;34.72
70051;SHT30;57391;51.306;22.680;2022-07-29T13:42:35;27.66;34.41
70051;SHT30;57391;51.306;22.680;2022-07-29T13:45:03;27.66;34.59
70051;SHT30;57391;51.306;22.680;2022-07-29T13:47:32;27.72;34.09
70051;SHT30;57391;51.306;22.680;2022-07-29T13:50:00;27.70;34.08
70051;SHT30;57391;51.306;22.680;2022-07-29T13:52:30;27.66;34.10
70051;SHT30;57391;51.306;22.680;2022-07-29T13:54:57;27.72;34.19
70051;SHT30;57391;51.306;22.680;2022-07-29T13:57:24;27.67;34.52
70051;SHT30;57391;51.306;22.680;2022-07-29T13:59:52;27.56;34.15
70051;SHT30;57391;51.306;22.680;2022-07-29T14:02:19;27.47;34.65
70051;SHT30;57391;51.306;22.680;2022-07-29T14:04:48;27.43;34.34
70051;SHT30;57391;51.306;22.680;2022-07-29T14:07:15;27.41;34.51
70051;SHT30;57391;51.306;22.680;2022-07-29T14:09:43;27.40;34.87
70051;SHT30;57391;51.306;22.680;2022-07-29T14:12:10;27.37;35.07
70051;SHT30;57391;51.306;22.680;2022-07-29T14:14:38;27.32;34.98
70051;SHT30;57391;51.306;22.680;2022-07-29T14:17:05;27.24;34.96
70051;SHT30;57391;51.306;22.680;2022-07-29T14:19:32;27.23;35.10
70051;SHT30;57391;51.306;22.680;2022-07-29T14:22:05;27.25;35.14
70051;SHT30;57391;51.306;22.680;2022-07-29T14:24:34;27.25;35.04
70051;SHT30;57391;51.306;22.680;2022-07-29T14:27:04;27.27;35.14
70051;SHT30;57391;51.306;22.680;2022-07-29T14:29:33;27.27;34.79
70051;SHT30;57391;51.306;22.680;2022-07-29T14:32:01;27.26;35.00
70051;SHT30;57391;51.306;22.680;2022-07-29T14:34:29;27.25;35.03
70051;SHT30;57391;51.306;22.680;2022-07-29T14:36:56;27.27;35.62
70051;SHT30;57391;51.306;22.680;2022-07-29T14:39:23;27.38;35.53
70051;SHT30;57391;51.306;22.680;2022-07-29T14:41:50;27.43;34.84
70051;SHT30;57391;51.306;22.680;2022-07-29T14:44:18;27.30;34.68
70051;SHT30;57391;51.306;22.680;2022-07-29T14:46:45;27.23;34.90
70051;SHT30;57391;51.306;22.680;2022-07-29T14:49:14;27.24;35.00
70051;SHT30;57391;51.306;22.680;2022-07-29T14:51:41;27.24;35.44
70051;SHT30;57391;51.306;22.680;2022-07-29T14:54:08;27.20;35.30
70051;SHT30;57391;51.306;22.680;2022-07-29T14:56:35;27.11;35.21
70051;SHT30;57391;51.306;22.680;2022-07-29T14:59:02;27.01;35.24
70051;SHT30;57391;51.306;22.680;2022-07-29T15:01:30;26.92;35.90
70051;SHT30;57391;51.306;22.680;2022-07-29T15:03:57;26.89;36.37
70051;SHT30;57391;51.306;22.680;2022-07-29T15:06:26;26.86;36.24
70051;SHT30;57391;51.306;22.680;2022-07-29T15:08:53;26.86;36.65
70051;SHT30;57391;51.306;22.680;2022-07-29T15:11:20;26.90;36.49
70051;SHT30;57391;51.306;22.680;2022-07-29T15:13:47;26.93;36.12
70051;SHT30;57391;51.306;22.680;2022-07-29T15:16:14;26.97;36.16
70051;SHT30;57391;51.306;22.680;2022-07-29T15:18:42;26.99;36.15
70051;SHT30;57391;51.306;22.680;2022-07-29T15:21:09;26.94;36.15
70051;SHT30;57391;51.306;22.680;2022-07-29T15:23:36;26.89;36.00
70051;SHT30;57391;51.306;22.680;2022-07-29T15:26:03;26.84;36.22
70051;SHT30;57391;51.306;22.680;2022-07-29T15:28:30;26.80;36.34
70051;SHT30;57391;51.306;22.680;2022-07-29T15:30:57;26.76;36.36
70051;SHT30;57391;51.306;22.680;2022-07-29T15:33:25;26.73;36.46
70051;SHT30;57391;51.306;22.680;2022-07-29T15:35:52;26.68;36.59
70051;SHT30;57391;51.306;22.680;2022-07-29T15:38:19;26.62;36.89
70051;SHT30;57391;51.306;22.680;2022-07-29T15:40:46;26.60;37.40
70051;SHT30;57391;51.306;22.680;2022-07-29T15:43:14;26.63;37.79
70051;SHT30;57391;51.306;22.680;2022-07-29T15:45:41;26.65;37.46
70051;SHT30;57391;51.306;22.680;2022-07-29T15:48:31;26.64;36.71
70051;SHT30;57391;51.306;22.680;2022-07-29T15:50:59;26.59;36.91
70051;SHT30;57391;51.306;22.680;2022-07-29T15:53:26;26.54;36.79
70051;SHT30;57391;51.306;22.680;2022-07-29T15:55:53;26.48;36.99
70051;SHT30;57391;51.306;22.680;2022-07-29T15:58:20;26.42;37.28
70051;SHT30;57391;51.306;22.680;2022-07-29T16:00:48;26.40;37.33
70051;SHT30;57391;51.306;22.680;2022-07-29T16:03:15;26.39;37.44
70051;SHT30;57391;51.306;22.680;2022-07-29T16:05:42;26.41;38.15
70051;SHT30;57391;51.306;22.680;2022-07-29T16:08:09;26.39;38.46
70051;SHT30;57391;51.306;22.680;2022-07-29T16:10:36;26.38;38.50
70051;SHT30;57391;51.306;22.680;2022-07-29T16:13:03;26.38;38.64
70051;SHT30;57391;51.306;22.680;2022-07-29T16:15:31;26.36;38.67
70051;SHT30;57391;51.306;22.680;2022-07-29T16:17:59;26.36;38.72
70051;SHT30;57391;51.306;22.680;2022-07-29T16:20:26;26.38;39.12
70051;SHT30;57391;51.306;22.680;2022-07-29T16:22:53;26.40;38.38
70051;SHT30;57391;51.306;22.680;2022-07-29T16:25:20;26.40;38.43
70051;SHT30;57391;51.306;22.680;2022-07-29T16:27:47;26.43;38.44
70051;SHT30;57391;51.306;22.680;2022-07-29T16:30:14;26.46;38.10
70051;SHT30;57391;51.306;22.680;2022-07-29T16:32:41;26.49;37.85
70051;SHT30;57391;51.306;22.680;2022-07-29T16:35:08;26.52;38.06
70051;SHT30;57391;51.306;22.680;2022-07-29T16:37:36;26.55;38.17
70051;SHT30;57391;51.306;22.680;2022-07-29T16:40:05;26.59;38.63
70051;SHT30;57391;51.306;22.680;2022-07-29T16:42:34;26.60;39.36
70051;SHT30;57391;51.306;22.680;2022-07-29T16:45:01;26.63;39.57